sensor_id;sensor_type;location;lat;lon;timestamp;temperature;humidity
14850;DHT22;7517;48.400;11.770;2023-05-16T00:00:13;16.80;79.00
14850;DHT22;7517;48.400;11.770;2023-05-16T00:02:42;16.70;78.90
14850;DHT22;7517;48.400;11.770;2023-05-16T00:05:09;16.70;78.90
14850;DHT22;7517;48.400;11.770;2023-05-16T00:07:41;16.80;79.00
14850;DHT22;7517;48.400;11.770;2023-05-16T00:10:11;16.80;79.00
14850;DHT22;7517;48.400;11.770;2023-05-16T00:12:39;16.70;78.80
14850;DHT22;7517;48.400;11.770;2023-05-16T00:15:11;16.70;78.90
14850;DHT22;7517;48.400;11.770;2023-05-16T00:17:39;16.70;78.90
14850;DHT22;7517;48.400;11.770;2023-05-16T00:20:11;16.70;79.00
14850;DHT22;7517;48.400;11.770;2023-05-16T00:22:41;16.70;78.80
14850;DHT22;7517;48.400;11.770;2023-05-16T00:25:10;16.70;78.80
14850;DHT22;7517;48.400;11.770;2023-05-16T00:27:37;16.70;78.80
14850;DHT22;7517;48.400;11.770;2023-05-16T00:30:06;16.70;78.90
14850;DHT22;7517;48.400;11.770;2023-05-16T00:32:35;16.60;78.90
14850;DHT22;7517;48.400;11.770;2023-05-16T00:35:03;16.60;79.00
14850;DHT22;7517;48.400;11.770;2023-05-16T00:37:31;16.60;79.10
14850;DHT22;7517;48.400;11.770;2023-05-16T00:39:59;16.60;79.10
14850;DHT22;7517;48.400;11.770;2023-05-16T00:42:28;16.60;79.10
14850;DHT22;7517;48.400;11.770;2023-05-16T00:44:56;16.60;79.00
14850;DHT22;7517;48.400;11.770;2023-05-16T00:47:23;16.60;79.00
14850;DHT22;7517;48.400;11.770;2023-05-16T00:49:51;16.60;78.90
14850;DHT22;7517;48.400;11.770;2023-05-16T00:52:18;16.50;78.80
14850;DHT22;7517;48.400;11.770;2023-05-16T00:54:46;16.50;78.80
14850;DHT22;7517;48.400;11.770;2023-05-16T00:57:14;16.50;79.00
14850;DHT22;7517;48.400;11.770;2023-05-16T00:59:43;16.50;79.20
14850;DHT22;7517;48.400;11.770;2023-05-16T01:02:11;16.50;79.20
14850;DHT22;7517;48.400;11.770;2023-05-16T01:04:39;16.50;79.20
14850;DHT22;7517;48.400;11.770;2023-05-16T01:07:07;16.50;79.20
14850;DHT22;7517;48.400;11.770;2023-05-16T01:09:35;16.50;79.10
14850;DHT22;7517;48.400;11.770;2023-05-16T01:12:10;16.50;79.20
14850;DHT22;7517;48.400;11.770;2023-05-16T01:14:50;16.40;79.00
14850;DHT22;7517;48.400;11.770;2023-05-16T01:17:30;16.50;78.90
14850;DHT22;7517;48.400;11.770;2023-05-16T01:20:08;16.50;78.90
14850;DHT22;7517;48.400;11.770;2023-05-16T01:22:58;16.40;78.90
14850;DHT22;7517;48.400;11.770;2023-05-16T01:25:44;16.40;78.60
14850;DHT22;7517;48.400;11.770;2023-05-16T01:28:23;16.40;78.80
14850;DHT22;7517;48.400;11.770;2023-05-16T01:30:51;16.40;79.00
14850;DHT22;7517;48.400;11.770;2023-05-16T01:33:20;16.40;79.00
14850;DHT22;7517;48.400;11.770;2023-05-16T01:35:57;16.40;79.00
14850;DHT22;7517;48.400;11.770;2023-05-16T01:38:34;16.30;78.80
14850;DHT22;7517;48.400;11.770;2023-05-16T01:41:15;16.30;78.90
14850;DHT22;7517;48.400;11.770;2023-05-16T01:43:51;16.30;78.80
14850;DHT22;7517;48.400;11.770;2023-05-16T01:46:27;16.30;78.70
14850;DHT22;7517;48.400;11.770;2023-05-16T01:49:03;16.30;78.80
14850;DHT22;7517;48.400;11.770;2023-05-16T01:51:41;16.30;78.80
14850;DHT22;7517;48.400;11.770;2023-05-16T01:54:17;16.20;79.00
14850;DHT22;7517;48.400;11.770;2023-05-16T01:56:51;16.20;79.10
14850;DHT22;7517;48.400;11.770;2023-05-16T01:59:22;16.20;79.20
14850;DHT22;7517;48.400;11.770;2023-05-16T02:01:52;16.20;79.30
14850;DHT22;7517;48.400;11.770;2023-05-16T02:04:20;16.20;79.40
14850;DHT22;7517;48.400;11.770;2023-05-16T02:06:49;16.20;79.40
14850;DHT22;7517;48.400;11.770;2023-05-16T02:09:17;16.20;79.40
14850;DHT22;7517;48.400;11.770;2023-05-16T02:11:44;16.20;79.40
14850;DHT22;7517;48.400;11.770;2023-05-16T02:14:12;16.20;79.40
14850;DHT22;7517;48.400;11.770;2023-05-16T02:16:41;16.10;79.40
14850;DHT22;7517;48.400;11.770;2023-05-16T02:19:08;16.10;79.20
14850;DHT22;7517;48.400;11.770;2023-05-16T02:21:36;16.10;79.30
14850;DHT22;7517;48.400;11.770;2023-05-16T02:24:03;16.10;79.30
14850;DHT22;7517;48.400;11.770;2023-05-16T02:26:32;16.10;79.30
14850;DHT22;7517;48.400;11.770;2023-05-16T02:28:59;16.10;79.40
14850;DHT22;7517;48.400;11.770;2023-05-16T02:31:27;16.10;79.50
14850;DHT22;7517;48.400;11.770;2023-05-16T02:33:57;16.10;79.50
14850;DHT22;7517;48.400;11.770;2023-05-16T02:36:28;16.10;79.50
14850;DHT22;7517;48.400;11.770;2023-05-16T02:38:58;16.10;79.60
14850;DHT22;7517;48.400;11.770;2023-05-16T02:41:26;16.10;79.50
14850;DHT22;7517;48.400;11.770;2023-05-16T02:43:54;16.00;79.40
14850;DHT22;7517;48.400;11.770;2023-05-16T02:46:22;16.00;79.50
14850;DHT22;7517;48.400;11.770;2023-05-16T02:48:51;16.00;79.60
14850;DHT22;7517;48.400;11.770;2023-05-16T02:51:23;16.00;79.60
14850;DHT22;7517;48.400;11.770;2023-05-16T02:53:51;16.00;79.40
14850;DHT22;7517;48.400;11.770;2023-05-16T02:56:21;16.00;79.60
14850;DHT22;7517;48.400;11.770;2023-05-16T02:58:49;16.00;79.70
14850;DHT22;7517;48.400;11.770;2023-05-16T03:01:16;16.00;79.70
14850;DHT22;7517;48.400;11.770;2023-05-16T03:03:44;16.00;79.70
14850;DHT22;7517;48.400;11.770;2023-05-16T03:06:12;16.00;79.70
14850;DHT22;7517;48.400;11.770;2023-05-16T03:08:41;16.00;79.90
14850;DHT22;7517;48.400;11.770;2023-05-16T03:11:08;16.00;79.80
14850;DHT22;7517;48.400;11.770;2023-05-16T03:13:39;16.00;79.70
14850;DHT22;7517;48.400;11.770;2023-05-16T03:16:07;15.90;79.70
14850;DHT22;7517;48.400;11.770;2023-05-16T03:18:34;15.90;79.80
14850;DHT22;7517;48.400;11.770;2023-05-16T03:21:02;15.90;79.80
14850;DHT22;7517;48.400;11.770;2023-05-16T03:23:30;15.90;79.80
14850;DHT22;7517;48.400;11.770;2023-05-16T03:25:59;15.90;79.80
14850;DHT22;7517;48.400;11.770;2023-05-16T03:28:26;15.90;79.70
14850;DHT22;7517;48.400;11.770;2023-05-16T03:30:54;15.90;79.90
14850;DHT22;7517;48.400;11.770;2023-05-16T03:33:21;15.90;79.90
14850;DHT22;7517;48.400;11.770;2023-05-16T03:35:49;15.90;79.70
14850;DHT22;7517;48.400;11.770;2023-05-16T03:38:17;15.90;79.80
14850;DHT22;7517;48.400;11.770;2023-05-16T03:40:46;15.90;79.80
14850;DHT22;7517;48.400;11.770;2023-05-16T03:43:15;15.90;79.90
14850;DHT22;7517;48.400;11.770;2023-05-16T03:45:42;15.90;79.90
14850;DHT22;7517;48.400;11.770;2023-05-16T03:48:10;15.90;79.90
14850;DHT22;7517;48.400;11.770;2023-05-16T03:50:37;15.90;79.90
14850;DHT22;7517;48.400;11.770;2023-05-16T03:53:06;15.80;79.80
14850;DHT22;7517;48.400;11.770;2023-05-16T03:55:36;15.80;79.90
14850;DHT22;7517;48.400;11.770;2023-05-16T03:58:05;15.80;79.90
14850;DHT22;7517;48.400;11.770;2023-05-16T04:00:34;15.80;80.00
14850;DHT22;7517;48.400;11.770;2023-05-16T04:03:05;15.80;80.00
14850;DHT22;7517;48.400;11.770;2023-05-16T04:05:36;15.80;80.20
14850;DHT22;7517;48.400;11.770;2023-05-16T04:08:04;15.80;80.00
14850;DHT22;7517;48.400;11.770;2023-05-16T04:10:31;15.80;80.10
14850;DHT22;7517;48.400;11.770;2023-05-16T04:12:58;15.80;80.00
14850;DHT22;7517;48.400;11.770;2023-05-16T04:15:25;15.80;79.90
14850;DHT22;7517;48.400;11.770;2023-05-16T04:17:57;15.80;80.10
14850;DHT22;7517;48.400;11.770;2023-05-16T04:20:24;15.80;80.00
14850;DHT22;7517;48.400;11.770;2023-05-16T04:22:52;15.80;80.10
14850;DHT22;7517;48.400;11.770;2023-05-16T04:25:19;15.80;80.10
14850;DHT22;7517;48.400;11.770;2023-05-16T04:27:46;15.80;80.20
14850;DHT22;7517;48.400;11.770;2023-05-16T04:30:14;15.70;80.10
14850;DHT22;7517;48.400;11.770;2023-05-16T04:32:42;15.70;80.00
14850;DHT22;7517;48.400;11.770;2023-05-16T04:35:11;15.70;80.00
14850;DHT22;7517;48.400;11.770;2023-05-16T04:37:38;15.70;80.10
14850;DHT22;7517;48.400;11.770;2023-05-16T04:40:07;15.70;80.20
14850;DHT22;7517;48.400;11.770;2023-05-16T04:42:34;15.70;80.20
14850;DHT22;7517;48.400;11.770;2023-05-16T04:45:02;15.70;80.00
14850;DHT22;7517;48.400;11.770;2023-05-16T04:47:31;15.70;80.00
14850;DHT22;7517;48.400;11.770;2023-05-16T04:49:58;15.70;80.00
14850;DHT22;7517;48.400;11.770;2023-05-16T04:52:27;15.70;80.10
14850;DHT22;7517;48.400;11.770;2023-05-16T04:54:54;15.70;80.20
14850;DHT22;7517;48.400;11.770;2023-05-16T04:57:25;15.70;80.20
14850;DHT22;7517;48.400;11.770;2023-05-16T04:59:52;15.70;80.20
14850;DHT22;7517;48.400;11.770;2023-05-16T05:02:21;15.80;80.50
14850;DHT22;7517;48.400;11.770;2023-05-16T05:04:50;15.80;80.70
14850;DHT22;7517;48.400;11.770;2023-05-16T05:07:19;15.80;80.70
14850;DHT22;7517;48.400;11.770;2023-05-16T05:09:48;15.80;80.50
14850;DHT22;7517;48.400;11.770;2023-05-16T05:12:18;15.80;80.40
14850;DHT22;7517;48.400;11.770;2023-05-16T05:14:47;15.80;80.50
14850;DHT22;7517;48.400;11.770;2023-05-16T05:17:16;15.80;80.50
14850;DHT22;7517;48.400;11.770;2023-05-16T05:19:45;15.90;80.50
14850;DHT22;7517;48.400;11.770;2023-05-16T05:22:13;15.90;80.70
14850;DHT22;7517;48.400;11.770;2023-05-16T05:24:42;15.90;80.80
14850;DHT22;7517;48.400;11.770;2023-05-16T05:27:12;15.90;80.70
14850;DHT22;7517;48.400;11.770;2023-05-16T05:29:40;16.00;80.90
14850;DHT22;7517;48.400;11.770;2023-05-16T05:32:07;16.00;81.00
14850;DHT22;7517;48.400;11.770;2023-05-16T05:34:36;16.00;80.90
14850;DHT22;7517;48.400;11.770;2023-05-16T05:37:04;16.00;80.90
14850;DHT22;7517;48.400;11.770;2023-05-16T05:39:33;16.10;80.90
14850;DHT22;7517;48.400;11.770;2023-05-16T05:42:00;16.10;80.80
14850;DHT22;7517;48.400;11.770;2023-05-16T05:44:30;16.10;80.80
14850;DHT22;7517;48.400;11.770;2023-05-16T05:46:58;16.10;80.70
14850;DHT22;7517;48.400;11.770;2023-05-16T05:49:25;16.20;80.70
14850;DHT22;7517;48.400;11.770;2023-05-16T05:51:53;16.20;80.70
14850;DHT22;7517;48.400;11.770;2023-05-16T05:54:21;16.20;80.70
14850;DHT22;7517;48.400;11.770;2023-05-16T05:56:48;16.20;80.70
14850;DHT22;7517;48.400;11.770;2023-05-16T05:59:16;16.20;80.50
14850;DHT22;7517;48.400;11.770;2023-05-16T06:01:45;16.20;80.40
14850;DHT22;7517;48.400;11.770;2023-05-16T06:04:17;16.20;80.30
14850;DHT22;7517;48.400;11.770;2023-05-16T06:06:44;16.20;80.30
14850;DHT22;7517;48.400;11.770;2023-05-16T06:09:12;16.20;80.30
14850;DHT22;7517;48.400;11.770;2023-05-16T06:11:39;16.20;80.30
14850;DHT22;7517;48.400;11.770;2023-05-16T06:14:06;16.30;80.30
14850;DHT22;7517;48.400;11.770;2023-05-16T06:16:35;16.30;80.30
14850;DHT22;7517;48.400;11.770;2023-05-16T06:19:05;16.30;80.40
14850;DHT22;7517;48.400;11.770;2023-05-16T06:21:32;16.30;80.50
14850;DHT22;7517;48.400;11.770;2023-05-16T06:24:00;16.30;80.60
14850;DHT22;7517;48.400;11.770;2023-05-16T06:26:27;16.30;80.60
14850;DHT22;7517;48.400;11.770;2023-05-16T06:28:55;16.30;80.60
14850;DHT22;7517;48.400;11.770;2023-05-16T06:31:22;16.30;80.80
14850;DHT22;7517;48.400;11.770;2023-05-16T06:33:49;16.30;81.00
14850;DHT22;7517;48.400;11.770;2023-05-16T06:36:18;16.30;80.90
14850;DHT22;7517;48.400;11.770;2023-05-16T06:38:46;16.40;81.00
14850;DHT22;7517;48.400;11.770;2023-05-16T06:41:13;16.40;81.10
14850;DHT22;7517;48.400;11.770;2023-05-16T06:43:40;16.40;81.10
14850;DHT22;7517;48.400;11.770;2023-05-16T06:46:09;16.40;81.00
14850;DHT22;7517;48.400;11.770;2023-05-16T06:48:39;16.40;80.80
14850;DHT22;7517;48.400;11.770;2023-05-16T06:51:06;16.40;80.70
14850;DHT22;7517;48.400;11.770;2023-05-16T06:53:37;16.40;80.60
14850;DHT22;7517;48.400;11.770;2023-05-16T06:56:06;16.40;80.50
14850;DHT22;7517;48.400;11.770;2023-05-16T06:58:33;16.40;80.50
14850;DHT22;7517;48.400;11.770;2023-05-16T07:01:01;16.40;80.50
14850;DHT22;7517;48.400;11.770;2023-05-16T07:03:29;16.40;80.50
14850;DHT22;7517;48.400;11.770;2023-05-16T07:05:57;16.40;80.50
14850;DHT22;7517;48.400;11.770;2023-05-16T07:08:25;16.50;80.70
14850;DHT22;7517;48.400;11.770;2023-05-16T07:10:54;16.50;80.70
14850;DHT22;7517;48.400;11.770;2023-05-16T07:13:22;16.50;80.80
14850;DHT22;7517;48.400;11.770;2023-05-16T07:15:49;16.50;80.90
14850;DHT22;7517;48.400;11.770;2023-05-16T07:18:16;16.60;80.90
14850;DHT22;7517;48.400;11.770;2023-05-16T07:20:44;16.60;80.90
14850;DHT22;7517;48.400;11.770;2023-05-16T07:23:11;16.60;80.80
14850;DHT22;7517;48.400;11.770;2023-05-16T07:25:38;16.70;80.50
14850;DHT22;7517;48.400;11.770;2023-05-16T07:28:07;16.70;80.60
14850;DHT22;7517;48.400;11.770;2023-05-16T07:30:35;16.70;80.50
14850;DHT22;7517;48.400;11.770;2023-05-16T07:33:02;16.80;80.70
14850;DHT22;7517;48.400;11.770;2023-05-16T07:35:30;16.80;80.80
14850;DHT22;7517;48.400;11.770;2023-05-16T07:37:57;16.90;80.70
14850;DHT22;7517;48.400;11.770;2023-05-16T07:40:24;16.90;80.50
14850;DHT22;7517;48.400;11.770;2023-05-16T07:42:54;17.00;80.60
14850;DHT22;7517;48.400;11.770;2023-05-16T07:45:22;17.00;80.40
14850;DHT22;7517;48.400;11.770;2023-05-16T07:47:50;17.10;80.20
14850;DHT22;7517;48.400;11.770;2023-05-16T07:50:17;17.20;80.40
14850;DHT22;7517;48.400;11.770;2023-05-16T07:52:45;17.20;80.60
14850;DHT22;7517;48.400;11.770;2023-05-16T07:55:17;17.30;80.70
14850;DHT22;7517;48.400;11.770;2023-05-16T07:57:47;17.40;80.20
14850;DHT22;7517;48.400;11.770;2023-05-16T08:00:16;17.50;80.60
14850;DHT22;7517;48.400;11.770;2023-05-16T08:02:48;17.60;80.50
14850;DHT22;7517;48.400;11.770;2023-05-16T08:05:15;17.70;80.20
14850;DHT22;7517;48.400;11.770;2023-05-16T08:07:43;17.80;79.50
14850;DHT22;7517;48.400;11.770;2023-05-16T08:10:10;17.90;79.20
14850;DHT22;7517;48.400;11.770;2023-05-16T08:12:38;18.00;79.50
14850;DHT22;7517;48.400;11.770;2023-05-16T08:15:06;18.00;79.30
14850;DHT22;7517;48.400;11.770;2023-05-16T08:17:34;18.10;79.10
14850;DHT22;7517;48.400;11.770;2023-05-16T08:20:05;18.20;79.10
14850;DHT22;7517;48.400;11.770;2023-05-16T08:22:33;18.20;79.00
14850;DHT22;7517;48.400;11.770;2023-05-16T08:25:00;18.20;79.00
14850;DHT22;7517;48.400;11.770;2023-05-16T08:27:29;18.30;79.00
14850;DHT22;7517;48.400;11.770;2023-05-16T08:29:57;18.30;78.60
14850;DHT22;7517;48.400;11.770;2023-05-16T08:32:24;18.30;78.60
14850;DHT22;7517;48.400;11.770;2023-05-16T08:34:52;18.30;78.20
14850;DHT22;7517;48.400;11.770;2023-05-16T08:37:21;18.30;78.00
14850;DHT22;7517;48.400;11.770;2023-05-16T08:39:48;18.30;78.00
14850;DHT22;7517;48.400;11.770;2023-05-16T08:42:16;18.30;78.00
14850;DHT22;7517;48.400;11.770;2023-05-16T08:44:43;18.30;77.90
14850;DHT22;7517;48.400;11.770;2023-05-16T08:47:12;18.30;78.10
14850;DHT22;7517;48.400;11.770;2023-05-16T08:49:46;18.30;78.00
14850;DHT22;7517;48.400;11.770;2023-05-16T08:52:18;18.30;77.80
14850;DHT22;7517;48.400;11.770;2023-05-16T08:54:49;18.30;77.60
14850;DHT22;7517;48.400;11.770;2023-05-16T08:57:18;18.30;77.60
14850;DHT22;7517;48.400;11.770;2023-05-16T08:59:46;18.30;77.60
14850;DHT22;7517;48.400;11.770;2023-05-16T09:02:13;18.30;77.70
14850;DHT22;7517;48.400;11.770;2023-05-16T09:04:42;18.30;77.70
14850;DHT22;7517;48.400;11.770;2023-05-16T09:07:12;18.30;77.80
14850;DHT22;7517;48.400;11.770;2023-05-16T09:09:40;18.30;78.70
14850;DHT22;7517;48.400;11.770;2023-05-16T09:12:09;18.30;78.20
14850;DHT22;7517;48.400;11.770;2023-05-16T09:14:37;18.20;78.50
14850;DHT22;7517;48.400;11.770;2023-05-16T09:17:05;18.20;78.80
14850;DHT22;7517;48.400;11.770;2023-05-16T09:19:37;18.20;79.20
14850;DHT22;7517;48.400;11.770;2023-05-16T09:22:07;18.20;79.40
14850;DHT22;7517;48.400;11.770;2023-05-16T09:24:37;18.20;79.80
14850;DHT22;7517;48.400;11.770;2023-05-16T09:27:11;18.20;79.90
14850;DHT22;7517;48.400;11.770;2023-05-16T09:29:39;18.20;79.90
14850;DHT22;7517;48.400;11.770;2023-05-16T09:32:09;18.20;80.00
14850;DHT22;7517;48.400;11.770;2023-05-16T09:34:41;18.20;80.00
14850;DHT22;7517;48.400;11.770;2023-05-16T09:37:09;18.20;80.00
14850;DHT22;7517;48.400;11.770;2023-05-16T09:39:39;18.20;80.20
14850;DHT22;7517;48.400;11.770;2023-05-16T09:42:12;18.20;80.20
14850;DHT22;7517;48.400;11.770;2023-05-16T09:44:41;18.20;80.30
14850;DHT22;7517;48.400;11.770;2023-05-16T09:47:13;18.20;80.20
14850;DHT22;7517;48.400;11.770;2023-05-16T09:49:42;18.20;80.40
14850;DHT22;7517;48.400;11.770;2023-05-16T09:52:10;18.20;80.50
14850;DHT22;7517;48.400;11.770;2023-05-16T09:54:39;18.20;80.30
14850;DHT22;7517;48.400;11.770;2023-05-16T09:57:06;18.20;80.20
14850;DHT22;7517;48.400;11.770;2023-05-16T09:59:37;18.20;80.30
14850;DHT22;7517;48.400;11.770;2023-05-16T10:02:06;18.20;80.20
14850;DHT22;7517;48.400;11.770;2023-05-16T10:04:33;18.20;80.30
14850;DHT22;7517;48.400;11.770;2023-05-16T10:07:02;18.20;80.50
14850;DHT22;7517;48.400;11.770;2023-05-16T10:09:32;18.20;80.50
14850;DHT22;7517;48.400;11.770;2023-05-16T10:12:00;18.20;80.60
14850;DHT22;7517;48.400;11.770;2023-05-16T10:14:33;18.30;81.00
14850;DHT22;7517;48.400;11.770;2023-05-16T10:17:06;18.30;81.00
14850;DHT22;7517;48.400;11.770;2023-05-16T10:19:36;18.30;80.80
14850;DHT22;7517;48.400;11.770;2023-05-16T10:22:06;18.40;81.10
14850;DHT22;7517;48.400;11.770;2023-05-16T10:24:42;18.40;81.20
14850;DHT22;7517;48.400;11.770;2023-05-16T10:27:14;18.50;81.20
14850;DHT22;7517;48.400;11.770;2023-05-16T10:29:42;18.50;81.40
14850;DHT22;7517;48.400;11.770;2023-05-16T10:32:12;18.60;81.50
14850;DHT22;7517;48.400;11.770;2023-05-16T10:34:41;18.70;81.60
14850;DHT22;7517;48.400;11.770;2023-05-16T10:37:09;18.80;81.80
14850;DHT22;7517;48.400;11.770;2023-05-16T10:39:37;18.80;81.70
14850;DHT22;7517;48.400;11.770;2023-05-16T10:42:06;18.90;81.60
14850;DHT22;7517;48.400;11.770;2023-05-16T10:44:33;19.00;81.40
14850;DHT22;7517;48.400;11.770;2023-05-16T10:47:04;19.10;81.40
14850;DHT22;7517;48.400;11.770;2023-05-16T10:49:33;19.10;81.20
14850;DHT22;7517;48.400;11.770;2023-05-16T10:52:03;19.10;81.00
14850;DHT22;7517;48.400;11.770;2023-05-16T10:54:36;19.20;80.90
14850;DHT22;7517;48.400;11.770;2023-05-16T10:57:10;19.20;80.70
14850;DHT22;7517;48.400;11.770;2023-05-16T10:59:43;19.30;80.60
14850;DHT22;7517;48.400;11.770;2023-05-16T11:02:24;19.30;80.70
14850;DHT22;7517;48.400;11.770;2023-05-16T11:04:56;19.30;80.00
14850;DHT22;7517;48.400;11.770;2023-05-16T11:07:29;19.30;80.60
14850;DHT22;7517;48.400;11.770;2023-05-16T11:10:04;19.40;81.00
14850;DHT22;7517;48.400;11.770;2023-05-16T11:12:41;19.40;80.70
14850;DHT22;7517;48.400;11.770;2023-05-16T11:15:18;19.40;80.60
14850;DHT22;7517;48.400;11.770;2023-05-16T11:17:50;19.50;80.50
14850;DHT22;7517;48.400;11.770;2023-05-16T11:20:33;19.50;80.80
14850;DHT22;7517;48.400;11.770;2023-05-16T11:23:20;19.50;80.50
14850;DHT22;7517;48.400;11.770;2023-05-16T11:25:54;19.60;79.20
14850;DHT22;7517;48.400;11.770;2023-05-16T11:28:23;19.60;79.90
14850;DHT22;7517;48.400;11.770;2023-05-16T11:30:53;19.60;80.30
14850;DHT22;7517;48.400;11.770;2023-05-16T11:33:23;19.60;80.30
14850;DHT22;7517;48.400;11.770;2023-05-16T11:36:07;19.70;80.40
14850;DHT22;7517;48.400;11.770;2023-05-16T11:38:36;19.70;79.80
14850;DHT22;7517;48.400;11.770;2023-05-16T11:41:07;19.70;80.30
14850;DHT22;7517;48.400;11.770;2023-05-16T11:43:41;19.80;81.10
14850;DHT22;7517;48.400;11.770;2023-05-16T11:46:13;19.80;80.50
14850;DHT22;7517;48.400;11.770;2023-05-16T11:48:42;19.80;80.70
14850;DHT22;7517;48.400;11.770;2023-05-16T11:51:11;19.80;80.70
14850;DHT22;7517;48.400;11.770;2023-05-16T11:53:43;19.90;80.40
14850;DHT22;7517;48.400;11.770;2023-05-16T11:56:10;19.90;80.40
14850;DHT22;7517;48.400;11.770;2023-05-16T11:58:38;19.90;80.50
14850;DHT22;7517;48.400;11.770;2023-05-16T12:01:06;19.90;80.30
14850;DHT22;7517;48.400;11.770;2023-05-16T12:03:34;19.90;80.10
14850;DHT22;7517;48.400;11.770;2023-05-16T12:06:03;19.90;79.70
14850;DHT22;7517;48.400;11.770;2023-05-16T12:08:32;19.90;80.00
14850;DHT22;7517;48.400;11.770;2023-05-16T12:10:59;19.90;80.30
14850;DHT22;7517;48.400;11.770;2023-05-16T12:13:28;19.90;80.20
14850;DHT22;7517;48.400;11.770;2023-05-16T12:15:56;19.90;80.30
14850;DHT22;7517;48.400;11.770;2023-05-16T12:18:23;19.90;80.50
14850;DHT22;7517;48.400;11.770;2023-05-16T12:20:51;19.90;80.80
14850;DHT22;7517;48.400;11.770;2023-05-16T12:23:19;19.90;80.80
14850;DHT22;7517;48.400;11.770;2023-05-16T12:25:48;19.90;80.80
14850;DHT22;7517;48.400;11.770;2023-05-16T12:28:17;19.90;80.30
14850;DHT22;7517;48.400;11.770;2023-05-16T12:30:44;19.80;80.40
14850;DHT22;7517;48.400;11.770;2023-05-16T12:33:14;19.80;80.50
14850;DHT22;7517;48.400;11.770;2023-05-16T12:35:43;19.80;80.40
14850;DHT22;7517;48.400;11.770;2023-05-16T12:38:14;19.80;80.40
14850;DHT22;7517;48.400;11.770;2023-05-16T12:40:43;19.80;80.20
14850;DHT22;7517;48.400;11.770;2023-05-16T12:43:15;19.80;79.40
14850;DHT22;7517;48.400;11.770;2023-05-16T12:45:49;19.80;78.00
14850;DHT22;7517;48.400;11.770;2023-05-16T12:48:17;19.80;77.60
14850;DHT22;7517;48.400;11.770;2023-05-16T12:50:45;19.70;77.20
14850;DHT22;7517;48.400;11.770;2023-05-16T12:53:14;19.70;76.00
14850;DHT22;7517;48.400;11.770;2023-05-16T12:55:45;19.50;75.10
14850;DHT22;7517;48.400;11.770;2023-05-16T12:58:12;19.40;75.00
14850;DHT22;7517;48.400;11.770;2023-05-16T13:00:42;19.30;74.50
14850;DHT22;7517;48.400;11.770;2023-05-16T13:03:10;19.10;74.30
14850;DHT22;7517;48.400;11.770;2023-05-16T13:05:37;18.90;74.60
14850;DHT22;7517;48.400;11.770;2023-05-16T13:08:05;18.80;74.60
14850;DHT22;7517;48.400;11.770;2023-05-16T13:10:32;18.70;75.20
14850;DHT22;7517;48.400;11.770;2023-05-16T13:13:00;18.50;75.60
14850;DHT22;7517;48.400;11.770;2023-05-16T13:15:30;18.40;75.80
14850;DHT22;7517;48.400;11.770;2023-05-16T13:17:57;18.40;76.10
14850;DHT22;7517;48.400;11.770;2023-05-16T13:20:25;18.30;76.40
14850;DHT22;7517;48.400;11.770;2023-05-16T13:22:53;18.20;76.70
14850;DHT22;7517;48.400;11.770;2023-05-16T13:25:21;18.10;76.80
14850;DHT22;7517;48.400;11.770;2023-05-16T13:27:48;18.00;77.20
14850;DHT22;7517;48.400;11.770;2023-05-16T13:30:16;17.90;77.60
14850;DHT22;7517;48.400;11.770;2023-05-16T13:32:45;17.80;78.00
14850;DHT22;7517;48.400;11.770;2023-05-16T13:35:13;17.70;78.20
14850;DHT22;7517;48.400;11.770;2023-05-16T13:37:40;17.60;78.50
14850;DHT22;7517;48.400;11.770;2023-05-16T13:40:09;17.60;78.90
14850;DHT22;7517;48.400;11.770;2023-05-16T13:42:37;17.50;79.40
14850;DHT22;7517;48.400;11.770;2023-05-16T13:45:06;17.40;80.00
14850;DHT22;7517;48.400;11.770;2023-05-16T13:47:34;17.30;80.50
14850;DHT22;7517;48.400;11.770;2023-05-16T13:50:04;17.20;80.90
14850;DHT22;7517;48.400;11.770;2023-05-16T13:52:35;17.10;81.30
14850;DHT22;7517;48.400;11.770;2023-05-16T13:55:03;17.10;81.70
14850;DHT22;7517;48.400;11.770;2023-05-16T13:57:31;17.00;82.00
14850;DHT22;7517;48.400;11.770;2023-05-16T13:59:59;17.00;82.30
14850;DHT22;7517;48.400;11.770;2023-05-16T14:02:26;16.90;82.40
14850;DHT22;7517;48.400;11.770;2023-05-16T14:04:53;16.90;82.80
14850;DHT22;7517;48.400;11.770;2023-05-16T14:07:23;16.80;82.80
14850;DHT22;7517;48.400;11.770;2023-05-16T14:09:52;16.80;83.00
14850;DHT22;7517;48.400;11.770;2023-05-16T14:12:19;16.70;82.90
14850;DHT22;7517;48.400;11.770;2023-05-16T14:14:46;16.70;82.90
14850;DHT22;7517;48.400;11.770;2023-05-16T14:17:14;16.60;83.00
14850;DHT22;7517;48.400;11.770;2023-05-16T14:19:42;16.60;83.50
14850;DHT22;7517;48.400;11.770;2023-05-16T14:22:10;16.60;83.80
14850;DHT22;7517;48.400;11.770;2023-05-16T14:24:39;16.50;83.80
14850;DHT22;7517;48.400;11.770;2023-05-16T14:27:08;16.50;83.90
14850;DHT22;7517;48.400;11.770;2023-05-16T14:29:35;16.50;84.30
14850;DHT22;7517;48.400;11.770;2023-05-16T14:32:04;16.50;84.60
14850;DHT22;7517;48.400;11.770;2023-05-16T14:34:35;16.50;84.70
14850;DHT22;7517;48.400;11.770;2023-05-16T14:37:03;16.40;84.60
14850;DHT22;7517;48.400;11.770;2023-05-16T14:39:30;16.40;84.80
14850;DHT22;7517;48.400;11.770;2023-05-16T14:41:59;16.40;85.10
14850;DHT22;7517;48.400;11.770;2023-05-16T14:44:27;16.40;85.30
14850;DHT22;7517;48.400;11.770;2023-05-16T14:46:54;16.40;85.50
14850;DHT22;7517;48.400;11.770;2023-05-16T14:49:21;16.40;85.70
14850;DHT22;7517;48.400;11.770;2023-05-16T14:51:49;16.40;85.80
14850;DHT22;7517;48.400;11.770;2023-05-16T14:54:16;16.40;85.80
14850;DHT22;7517;48.400;11.770;2023-05-16T14:56:44;16.40;85.80
14850;DHT22;7517;48.400;11.770;2023-05-16T14:59:13;16.40;85.70
14850;DHT22;7517;48.400;11.770;2023-05-16T15:01:40;16.40;85.60
14850;DHT22;7517;48.400;11.770;2023-05-16T15:04:07;16.40;85.60
14850;DHT22;7517;48.400;11.770;2023-05-16T15:06:34;16.40;85.70
14850;DHT22;7517;48.400;11.770;2023-05-16T15:09:02;16.30;85.70
14850;DHT22;7517;48.400;11.770;2023-05-16T15:11:30;16.30;85.90
14850;DHT22;7517;48.400;11.770;2023-05-16T15:13:58;16.40;86.10
14850;DHT22;7517;48.400;11.770;2023-05-16T15:16:28;16.40;86.20
14850;DHT22;7517;48.400;11.770;2023-05-16T15:18:56;16.40;86.40
14850;DHT22;7517;48.400;11.770;2023-05-16T15:21:23;16.40;86.40
14850;DHT22;7517;48.400;11.770;2023-05-16T15:23:51;16.40;86.50
14850;DHT22;7517;48.400;11.770;2023-05-16T15:26:19;16.40;86.60
14850;DHT22;7517;48.400;11.770;2023-05-16T15:28:47;16.40;86.60
14850;DHT22;7517;48.400;11.770;2023-05-16T15:31:14;16.40;86.60
14850;DHT22;7517;48.400;11.770;2023-05-16T15:33:44;16.40;86.90
14850;DHT22;7517;48.400;11.770;2023-05-16T15:36:12;16.50;87.00
14850;DHT22;7517;48.400;11.770;2023-05-16T15:38:40;16.50;87.00
14850;DHT22;7517;48.400;11.770;2023-05-16T15:41:10;16.50;87.20